createdAt,value
2023-05-12T00:01:30.234Z,4.13
2023-05-12T00:03:58.996Z,5.38
2023-05-12T00:06:27.709Z,4.30
2023-05-12T00:08:56.213Z,4.10
2023-05-12T00:11:24.750Z,4.35
2023-05-12T00:13:55.838Z,5.88
2023-05-12T00:16:24.462Z,4.10
2023-05-12T00:18:53.336Z,4.30
2023-05-12T00:21:22.024Z,4.03
2023-05-12T00:23:50.023Z,4.85
2023-05-12T00:26:18.703Z,4.00
2023-05-12T00:28:48.170Z,5.40
2023-05-12T00:31:18.133Z,4.35
2023-05-12T00:33:46.703Z,4.78
2023-05-12T00:36:14.762Z,4.82
2023-05-12T00:38:43.383Z,3.92
2023-05-12T00:41:11.413Z,3.55
2023-05-12T00:43:39.979Z,4.03
2023-05-12T00:46:08.907Z,3.65
2023-05-12T00:48:38.713Z,3.95
2023-05-12T00:51:07.793Z,4.72
2023-05-12T00:53:48.441Z,4.10
2023-05-12T00:56:19.809Z,3.78
2023-05-12T00:58:48.515Z,3.78
2023-05-12T01:01:16.727Z,3.92
2023-05-12T01:03:47.551Z,3.90
2023-05-12T01:06:20.989Z,5.03
2023-05-12T01:08:49.069Z,4.43
2023-05-12T01:11:17.431Z,4.10
2023-05-12T01:13:45.569Z,4.28
2023-05-12T01:16:16.561Z,5.40
2023-05-12T01:18:50.012Z,3.90
2023-05-12T01:21:19.774Z,3.63
2023-05-12T01:24:00.139Z,4.25
2023-05-12T01:26:32.370Z,4.10
2023-05-12T01:29:01.885Z,4.55
2023-05-12T01:31:31.610Z,4.00
2023-05-12T01:34:00.248Z,4.07
2023-05-12T01:36:28.800Z,3.80
2023-05-12T01:38:56.833Z,4.25
2023-05-12T01:41:24.951Z,4.03
2023-05-12T01:43:54.936Z,4.80
2023-05-12T01:46:23.064Z,4.30
2023-05-12T01:48:51.646Z,4.05
2023-05-12T01:51:19.760Z,4.30
2023-05-12T01:53:48.329Z,3.67
2023-05-12T01:56:16.429Z,3.67
2023-05-12T01:58:45.022Z,4.13
2023-05-12T02:01:15.019Z,3.70
2023-05-12T02:03:44.207Z,3.90
2023-05-12T02:06:12.864Z,4.35
2023-05-12T02:08:40.934Z,4.07
2023-05-12T02:11:10.002Z,4.32
2023-05-12T02:13:38.533Z,4.15
2023-05-12T02:16:07.774Z,4.80
2023-05-12T02:18:37.831Z,4.88
2023-05-12T02:21:06.208Z,4.05
2023-05-12T02:23:34.748Z,4.80
2023-05-12T02:26:02.872Z,4.95
2023-05-12T02:28:31.458Z,4.57
2023-05-12T02:30:59.496Z,4.20
2023-05-12T02:33:28.372Z,3.83
2023-05-12T02:35:58.351Z,5.75
2023-05-12T02:38:26.451Z,5.00
2023-05-12T02:40:55.111Z,4.65
2023-05-12T02:43:23.727Z,4.50
2023-05-12T02:45:52.004Z,4.05
2023-05-12T02:48:20.698Z,4.47
2023-05-12T02:50:48.763Z,5.90
2023-05-12T02:53:18.691Z,4.82
2023-05-12T02:55:46.806Z,4.97
2023-05-12T02:58:15.394Z,5.18
2023-05-12T03:00:43.464Z,4.65
2023-05-12T03:03:12.092Z,5.13
2023-05-12T03:05:40.240Z,5.82
2023-05-12T03:08:08.962Z,5.18
2023-05-12T03:10:38.497Z,5.95
2023-05-12T03:13:07.058Z,5.60
2023-05-12T03:15:35.571Z,4.95
2023-05-12T03:18:04.331Z,5.97
2023-05-12T03:20:32.535Z,5.70
2023-05-12T03:23:00.716Z,6.05
2023-05-12T03:25:29.385Z,5.82
2023-05-12T03:27:59.299Z,5.90
2023-05-12T03:30:27.859Z,6.05
2023-05-12T03:32:56.207Z,5.68
2023-05-12T03:35:25.015Z,5.57
2023-05-12T03:37:53.260Z,5.22
2023-05-12T03:40:21.630Z,5.30
2023-05-12T03:42:50.481Z,5.45
2023-05-12T03:45:20.530Z,5.50
2023-05-12T03:47:49.285Z,5.22
2023-05-12T03:50:18.266Z,5.63
2023-05-12T03:52:46.474Z,5.47
2023-05-12T03:55:15.126Z,5.05
2023-05-12T03:57:43.214Z,5.60
2023-05-12T04:00:13.347Z,8.13
2023-05-12T04:02:42.866Z,5.40
2023-05-12T04:05:11.976Z,5.30
2023-05-12T04:07:40.568Z,5.47
2023-05-12T04:10:09.838Z,4.53
2023-05-12T04:12:38.410Z,5.00
2023-05-12T04:15:08.022Z,4.75
2023-05-12T04:17:36.804Z,5.53
2023-05-12T04:20:07.582Z,4.65
2023-05-12T04:22:36.180Z,4.72
2023-05-12T04:25:04.746Z,5.43
2023-05-12T04:27:33.269Z,4.93
2023-05-12T04:30:01.664Z,5.40
2023-05-12T04:32:30.283Z,4.88
2023-05-12T04:34:58.932Z,4.78
2023-05-12T04:37:28.842Z,4.88
2023-05-12T04:39:56.936Z,4.90
2023-05-12T04:42:25.079Z,5.20
2023-05-12T04:44:53.660Z,5.38
2023-05-12T04:47:21.793Z,5.18
2023-05-12T04:49:49.984Z,5.15
2023-05-12T04:52:18.565Z,5.80
2023-05-12T04:54:48.498Z,4.53
2023-05-12T04:57:16.572Z,7.70
2023-05-12T04:59:45.171Z,5.07
2023-05-12T05:02:13.754Z,5.18
2023-05-12T05:04:42.419Z,4.90
2023-05-12T05:07:10.581Z,4.75
2023-05-12T05:09:39.241Z,5.35
2023-05-12T05:12:10.096Z,4.95
2023-05-12T05:14:39.060Z,5.93
2023-05-12T05:17:08.010Z,4.75
2023-05-12T05:19:47.718Z,4.72
2023-05-12T05:22:21.012Z,5.70
2023-05-12T05:24:49.130Z,4.78
2023-05-12T05:27:19.118Z,6.03
2023-05-12T05:29:47.219Z,5.20
2023-05-12T05:32:15.849Z,4.85
2023-05-12T05:34:44.482Z,5.38
2023-05-12T05:37:12.959Z,4.85
2023-05-12T05:39:41.578Z,5.57
2023-05-12T05:42:09.697Z,4.57
2023-05-12T05:44:39.632Z,4.90
2023-05-12T05:47:07.860Z,4.90
2023-05-12T05:49:36.470Z,4.30
2023-05-12T05:52:04.837Z,4.55
2023-05-12T05:54:33.390Z,4.82
2023-05-12T05:57:03.540Z,6.43
2023-05-12T05:59:32.298Z,4.70
2023-05-12T06:02:01.898Z,4.70
2023-05-12T06:04:30.255Z,4.78
2023-05-12T06:06:58.580Z,4.88
2023-05-12T06:09:26.739Z,4.45
2023-05-12T06:11:54.840Z,5.15
2023-05-12T06:14:23.348Z,4.90
2023-05-12T06:16:52.344Z,5.10
2023-05-12T06:19:22.033Z,5.38
2023-05-12T06:21:50.598Z,4.97
2023-05-12T06:24:19.139Z,5.30
2023-05-12T06:26:47.715Z,5.53
2023-05-12T06:29:15.875Z,5.50
2023-05-12T06:31:44.427Z,4.95
2023-05-12T06:34:12.550Z,5.53
2023-05-12T06:36:42.097Z,4.90
2023-05-12T06:39:10.172Z,9.05
2023-05-12T06:41:38.308Z,4.63
2023-05-12T06:44:06.631Z,5.25
2023-05-12T06:46:35.284Z,6.30
2023-05-12T06:49:03.440Z,4.28
2023-05-12T06:51:32.030Z,5.18
2023-05-12T06:54:02.108Z,5.45
2023-05-12T06:56:30.328Z,4.88
2023-05-12T06:59:01.579Z,5.40
2023-05-12T07:01:30.418Z,4.97
2023-05-12T07:04:00.060Z,4.88
2023-05-12T07:06:29.145Z,5.00
2023-05-12T07:08:57.857Z,6.57
2023-05-12T07:11:27.935Z,5.40
2023-05-12T07:13:56.543Z,4.57
2023-05-12T07:16:25.134Z,6.32
2023-05-12T07:18:53.765Z,4.85
2023-05-12T07:21:22.417Z,5.78
2023-05-12T07:23:50.482Z,6.65
2023-05-12T07:26:19.199Z,4.80
2023-05-12T07:28:48.657Z,4.90
2023-05-12T07:31:17.513Z,5.07
2023-05-12T07:33:46.919Z,6.35
2023-05-12T07:36:15.041Z,6.97
2023-05-12T07:38:43.685Z,7.90
2023-05-12T07:41:12.284Z,6.80
2023-05-12T07:43:40.391Z,6.18
2023-05-12T07:46:10.393Z,6.35
2023-05-12T07:48:40.349Z,5.78
2023-05-12T07:51:09.557Z,6.25
2023-05-12T07:53:38.116Z,6.05
2023-05-12T07:56:08.602Z,8.45
2023-05-12T07:58:36.834Z,5.50
2023-05-12T08:01:06.672Z,6.35
2023-05-12T08:03:37.810Z,5.40
2023-05-12T08:06:07.236Z,4.75
2023-05-12T08:08:36.593Z,4.85
2023-05-12T08:11:05.228Z,4.00
2023-05-12T08:13:33.783Z,4.03
2023-05-12T08:16:02.351Z,4.15
2023-05-12T08:18:30.814Z,3.83
2023-05-12T08:21:00.279Z,3.30
2023-05-12T08:23:28.816Z,3.72
2023-05-12T08:25:56.896Z,3.22
2023-05-12T08:28:25.431Z,3.00
2023-05-12T08:30:53.534Z,3.33
2023-05-12T08:33:22.342Z,4.95
2023-05-12T08:35:50.777Z,3.15
2023-05-12T08:38:21.008Z,3.50
2023-05-12T08:40:58.543Z,3.58
2023-05-12T08:43:31.368Z,2.63
2023-05-12T08:46:00.733Z,2.78
2023-05-12T08:48:30.385Z,3.03
2023-05-12T08:50:59.449Z,3.08
2023-05-12T08:53:30.690Z,3.58
2023-05-12T08:58:50.698Z,2.90
2023-05-12T09:01:19.227Z,3.10
2023-05-12T09:03:48.326Z,2.97
2023-05-12T09:06:17.207Z,4.35
2023-05-12T09:08:47.106Z,2.60
2023-05-12T09:11:16.086Z,3.05
2023-05-12T09:13:53.484Z,2.90
2023-05-12T09:16:26.320Z,3.70
2023-05-12T09:18:56.680Z,4.30
2023-05-12T09:21:26.894Z,3.38
2023-05-12T09:23:57.991Z,2.72
2023-05-12T09:26:27.919Z,3.17
2023-05-12T09:28:57.724Z,3.72
2023-05-12T09:31:27.725Z,4.10
2023-05-12T09:33:56.693Z,3.08
2023-05-12T09:36:27.031Z,3.33
2023-05-12T09:39:05.111Z,3.50
2023-05-12T09:41:36.581Z,2.90
2023-05-12T09:44:05.680Z,2.88
2023-05-12T09:46:34.306Z,3.47
2023-05-12T09:49:04.121Z,4.22
2023-05-12T09:51:32.334Z,3.90
2023-05-12T09:54:02.377Z,3.97
2023-05-12T09:56:32.396Z,3.45
2023-05-12T09:59:02.827Z,3.13
2023-05-12T10:01:31.994Z,2.90
2023-05-12T10:04:00.631Z,3.38
2023-05-12T10:06:31.707Z,2.67
2023-05-12T10:09:10.138Z,3.05
2023-05-12T10:11:39.050Z,3.20
2023-05-12T10:14:09.972Z,2.78
2023-05-12T10:16:38.668Z,2.75
2023-05-12T10:19:07.856Z,3.10
2023-05-12T10:21:37.765Z,3.28
2023-05-12T10:24:07.889Z,3.15
2023-05-12T10:26:39.828Z,4.00
2023-05-12T10:29:08.789Z,3.30
2023-05-12T10:31:37.581Z,2.78
2023-05-12T10:34:06.803Z,2.88
2023-05-12T10:36:45.446Z,2.92
2023-05-12T10:39:17.069Z,3.58
2023-05-12T10:41:45.329Z,2.47
2023-05-12T10:44:14.077Z,2.83
2023-05-12T10:46:43.564Z,2.63
2023-05-12T10:49:13.354Z,2.50
2023-05-12T10:51:50.485Z,2.70
2023-05-12T10:54:26.798Z,2.50
2023-05-12T10:56:59.693Z,3.05
2023-05-12T10:59:29.236Z,2.40
2023-05-12T11:02:03.995Z,2.30
2023-05-12T11:04:43.397Z,3.35
2023-05-12T11:07:14.280Z,2.30
2023-05-12T11:12:18.446Z,2.42
2023-05-12T11:14:48.077Z,2.42
2023-05-12T11:17:16.811Z,3.38
2023-05-12T11:19:48.249Z,2.50
2023-05-12T11:22:19.850Z,2.40
2023-05-12T11:24:50.636Z,2.75
2023-05-12T11:27:21.649Z,3.40
2023-05-12T11:29:58.552Z,3.25
2023-05-12T11:32:26.900Z,2.95
2023-05-12T11:34:55.524Z,3.90
2023-05-12T11:37:24.377Z,4.65
2023-05-12T11:39:53.958Z,3.92
2023-05-12T11:42:25.013Z,4.75
2023-05-12T11:44:55.522Z,5.85
2023-05-12T11:47:24.207Z,6.72
2023-05-12T11:49:53.482Z,4.70
2023-05-12T11:52:24.010Z,7.05
2023-05-12T11:54:54.832Z,4.47
2023-05-12T11:57:27.516Z,3.08
2023-05-12T12:00:00.833Z,5.95
2023-05-12T12:02:29.704Z,3.10
2023-05-12T12:04:58.694Z,4.32
2023-05-12T12:07:31.617Z,3.75
2023-05-12T12:10:12.955Z,3.10
2023-05-12T12:12:41.745Z,2.58
2023-05-12T12:15:11.172Z,2.55
2023-05-12T12:17:40.452Z,2.92
2023-05-12T12:20:10.222Z,3.72
2023-05-12T12:22:38.779Z,3.38
2023-05-12T12:25:09.549Z,3.00
2023-05-12T12:27:38.389Z,3.33
2023-05-12T12:30:08.044Z,2.60
2023-05-12T12:32:36.144Z,2.95
2023-05-12T12:35:07.015Z,2.92
2023-05-12T12:37:35.698Z,2.97
2023-05-12T12:40:08.577Z,3.30
2023-05-12T12:42:40.205Z,4.38
2023-05-12T12:45:10.456Z,4.55
2023-05-12T12:47:39.148Z,2.90
2023-05-12T12:50:10.064Z,3.15
2023-05-12T12:52:39.288Z,3.63
2023-05-12T12:55:09.175Z,3.95
2023-05-12T12:57:39.286Z,3.08
2023-05-12T13:00:08.689Z,4.72
2023-05-12T13:02:37.588Z,3.08
2023-05-12T13:05:07.599Z,2.72
2023-05-12T13:07:35.680Z,3.92
2023-05-12T13:10:04.415Z,2.45
2023-05-12T13:12:33.079Z,2.40
2023-05-12T13:15:03.079Z,3.33
2023-05-12T13:17:31.727Z,2.40
2023-05-12T13:20:00.129Z,3.13
2023-05-12T13:22:29.476Z,2.85
2023-05-12T13:25:00.307Z,2.17
2023-05-12T13:27:28.917Z,2.45
2023-05-12T13:29:57.475Z,2.10
2023-05-12T13:32:26.928Z,2.47
2023-05-12T13:34:55.474Z,2.30
2023-05-12T13:37:23.731Z,2.17
2023-05-12T13:39:52.393Z,2.38
2023-05-12T13:42:21.755Z,2.15
2023-05-12T13:44:50.480Z,2.42
2023-05-12T13:47:19.066Z,2.80
2023-05-12T13:49:49.027Z,4.05
2023-05-12T13:52:17.572Z,2.92
2023-05-12T13:54:46.118Z,2.70
2023-05-12T13:57:14.754Z,4.10
2023-05-12T13:59:42.859Z,3.30
2023-05-12T14:02:12.022Z,6.60
2023-05-12T14:04:40.123Z,2.95
2023-05-12T14:07:10.090Z,2.55
2023-05-12T14:09:38.151Z,4.50
2023-05-12T14:12:07.162Z,2.70
2023-05-12T14:14:35.237Z,2.90
2023-05-12T14:17:03.789Z,2.95
2023-05-12T14:19:31.876Z,2.53
2023-05-12T14:22:00.724Z,2.97
2023-05-12T14:24:30.330Z,2.70
2023-05-12T14:26:58.922Z,2.47
2023-05-12T14:29:27.099Z,2.63
2023-05-12T14:31:55.757Z,2.53
2023-05-12T14:34:24.269Z,2.22
2023-05-12T14:36:53.039Z,3.58
2023-05-12T14:39:21.602Z,2.67
2023-05-12T14:41:53.125Z,2.63
2023-05-12T14:44:21.699Z,2.47
2023-05-12T14:46:50.291Z,2.58
2023-05-12T14:49:21.682Z,2.53
2023-05-12T14:51:50.201Z,2.53
2023-05-12T14:54:25.805Z,3.53
2023-05-12T14:56:56.588Z,3.15
2023-05-12T14:59:24.829Z,3.22
2023-05-12T15:01:53.017Z,2.55
2023-05-12T15:04:21.780Z,3.13
2023-05-12T15:06:50.289Z,2.92
2023-05-12T15:09:18.892Z,3.25
2023-05-12T15:11:47.044Z,3.00
2023-05-12T15:14:16.964Z,3.28
2023-05-12T15:16:45.297Z,2.95
2023-05-12T15:19:14.176Z,2.83
2023-05-12T15:21:42.325Z,3.08
2023-05-12T15:24:10.927Z,2.70
2023-05-12T15:26:40.518Z,2.50
2023-05-12T15:29:09.241Z,2.58
2023-05-12T15:31:38.813Z,3.33
2023-05-12T15:34:07.781Z,3.03
2023-05-12T15:36:36.379Z,5.78
2023-05-12T15:39:05.156Z,2.47
2023-05-12T15:41:33.484Z,2.97
2023-05-12T15:44:02.026Z,2.97
2023-05-12T15:46:31.013Z,2.38
2023-05-12T15:49:00.532Z,2.20
2023-05-12T15:51:30.348Z,2.70
2023-05-12T15:53:58.946Z,3.17
2023-05-12T15:56:27.125Z,2.92
2023-05-12T15:58:56.669Z,3.38
2023-05-12T16:01:25.326Z,2.92
2023-05-12T16:03:54.870Z,2.67
2023-05-12T16:06:24.874Z,4.13
2023-05-12T16:08:53.329Z,7.22
2023-05-12T16:11:21.550Z,2.95
2023-05-12T16:13:49.681Z,2.88
2023-05-12T16:16:17.782Z,2.60
2023-05-12T16:18:46.504Z,2.42
2023-05-12T16:21:14.763Z,3.83
2023-05-12T16:23:44.691Z,2.10
2023-05-12T16:26:12.926Z,2.72
2023-05-12T16:28:41.109Z,2.35
2023-05-12T16:31:09.746Z,2.25
2023-05-12T16:33:37.942Z,2.63
2023-05-12T16:36:06.336Z,2.80
2023-05-12T16:38:34.809Z,2.60
2023-05-12T16:41:05.326Z,2.28
2023-05-12T16:43:33.968Z,2.33
2023-05-12T16:46:03.489Z,2.17
2023-05-12T16:48:34.734Z,2.35
2023-05-12T16:51:03.941Z,3.10
2023-05-12T16:53:32.255Z,2.22
2023-05-12T16:56:01.024Z,2.35
2023-05-12T16:58:32.197Z,2.90
2023-05-12T17:01:00.863Z,2.85
2023-05-12T17:03:29.339Z,2.42
2023-05-12T17:05:58.060Z,5.32
2023-05-12T17:08:26.362Z,2.50
2023-05-12T17:10:54.503Z,2.60
2023-05-12T17:13:23.197Z,3.72
2023-05-12T17:15:53.296Z,2.13
2023-05-12T17:18:21.792Z,4.07
2023-05-12T17:20:49.908Z,5.13
2023-05-12T17:23:18.070Z,3.35
2023-05-12T17:25:46.150Z,2.70
2023-05-12T17:28:14.360Z,2.60
2023-05-12T17:30:43.043Z,2.67
2023-05-12T17:33:15.488Z,4.32
2023-05-12T17:35:47.464Z,2.63
2023-05-12T17:38:22.172Z,2.55
2023-05-12T17:40:50.254Z,2.40
2023-05-12T17:43:18.579Z,3.50
2023-05-12T17:45:46.661Z,3.10
2023-05-12T17:48:16.163Z,2.75
2023-05-12T17:50:44.227Z,2.25
2023-05-12T17:53:12.780Z,2.60
2023-05-12T17:55:42.169Z,2.90
2023-05-12T17:58:10.731Z,2.72
2023-05-12T18:00:38.838Z,4.70
2023-05-12T18:03:07.282Z,3.10
2023-05-12T18:05:37.388Z,3.00
2023-05-12T18:08:06.076Z,3.03
2023-05-12T18:10:35.873Z,2.88
2023-05-12T18:13:04.098Z,2.97
2023-05-12T18:15:32.678Z,2.88
2023-05-12T18:18:01.812Z,2.70
2023-05-12T18:20:29.928Z,5.65
2023-05-12T18:22:59.447Z,2.75
2023-05-12T18:25:27.950Z,4.40
2023-05-12T18:27:56.117Z,4.63
2023-05-12T18:30:24.188Z,6.28
2023-05-12T18:32:52.462Z,2.83
2023-05-12T18:35:20.847Z,2.80
2023-05-12T18:37:49.564Z,4.28
2023-05-12T18:40:19.542Z,3.85
2023-05-12T18:42:47.644Z,4.68
2023-05-12T18:45:15.739Z,4.38
2023-05-12T18:47:43.951Z,5.15
2023-05-12T18:50:12.654Z,3.90
2023-05-12T18:52:40.765Z,3.05
2023-05-12T18:55:10.901Z,4.15
2023-05-12T18:57:40.324Z,3.13
2023-05-12T19:00:10.166Z,4.10
2023-05-12T19:02:38.320Z,3.47
2023-05-12T19:05:08.032Z,3.45
2023-05-12T19:07:36.260Z,5.15
2023-05-12T19:10:05.982Z,3.20
2023-05-12T19:12:34.016Z,3.53
2023-05-12T19:15:03.946Z,3.40
2023-05-12T19:17:32.058Z,3.20
2023-05-12T19:20:00.663Z,3.92
2023-05-12T19:22:29.697Z,7.45
2023-05-12T19:24:58.032Z,4.22
2023-05-12T19:27:27.119Z,4.20
2023-05-12T19:29:56.230Z,4.75
2023-05-12T19:32:25.954Z,3.40
2023-05-12T19:34:54.497Z,3.67
2023-05-12T19:37:22.752Z,3.40
2023-05-12T19:39:51.576Z,2.95
2023-05-12T19:42:19.669Z,5.53
2023-05-12T19:44:48.264Z,4.78
2023-05-12T19:47:16.380Z,3.08
2023-05-12T19:49:46.464Z,3.63
2023-05-12T19:52:14.587Z,3.35
2023-05-12T19:54:42.661Z,3.47
2023-05-12T19:57:10.843Z,3.85
2023-05-12T19:59:38.919Z,3.47
2023-05-12T20:02:07.269Z,3.10
2023-05-12T20:04:35.352Z,2.60
2023-05-12T20:07:05.280Z,2.67
2023-05-12T20:09:33.666Z,4.47
2023-05-12T20:12:02.317Z,2.10
2023-05-12T20:14:31.639Z,2.28
2023-05-12T20:17:05.609Z,1.98
2023-05-12T20:19:35.100Z,1.88
2023-05-12T20:22:04.980Z,2.10
2023-05-12T20:24:33.356Z,2.25
2023-05-12T20:27:02.187Z,2.88
2023-05-12T20:29:30.562Z,2.28
2023-05-12T20:31:58.679Z,1.90
2023-05-12T20:34:30.635Z,2.50
2023-05-12T20:36:58.710Z,2.30
2023-05-12T20:39:28.974Z,2.53
2023-05-12T20:41:57.073Z,2.53
2023-05-12T20:44:26.457Z,2.58
2023-05-12T20:46:55.128Z,2.67
2023-05-12T20:49:23.644Z,4.32
2023-05-12T20:51:51.721Z,3.05
2023-05-12T20:54:20.300Z,2.70
2023-05-12T20:56:49.706Z,2.30
2023-05-12T20:59:17.753Z,2.25
2023-05-12T21:01:45.908Z,2.40
2023-05-12T21:04:14.569Z,2.08
2023-05-12T21:06:42.656Z,2.00
2023-05-12T21:09:10.803Z,2.22
2023-05-12T21:11:38.854Z,2.15
2023-05-12T21:14:08.274Z,2.22
2023-05-12T21:16:36.593Z,2.25
2023-05-12T21:19:04.700Z,1.88
2023-05-12T21:21:32.776Z,1.83
2023-05-12T21:24:00.876Z,2.22
2023-05-12T21:26:28.964Z,3.30
2023-05-12T21:28:58.064Z,3.65
2023-05-12T21:31:27.501Z,3.30
2023-05-12T21:33:56.060Z,2.83
2023-05-12T21:36:24.618Z,2.53
2023-05-12T21:38:53.125Z,3.55
2023-05-12T21:41:21.513Z,5.15
2023-05-12T21:43:50.049Z,2.28
2023-05-12T21:46:18.177Z,2.08
2023-05-12T21:48:48.348Z,3.65
2023-05-12T21:51:16.994Z,2.72
2023-05-12T21:53:45.606Z,2.45
2023-05-12T21:56:14.212Z,2.13
2023-05-12T21:58:42.308Z,2.30
2023-05-12T22:01:10.897Z,2.47
2023-05-12T22:03:39.455Z,2.55
2023-05-12T22:06:09.172Z,2.88
2023-05-12T22:08:37.700Z,3.75
2023-05-12T22:11:06.440Z,2.40
2023-05-12T22:13:34.468Z,2.92
2023-05-12T22:16:03.021Z,3.30
2023-05-12T22:18:31.750Z,2.40
2023-05-12T22:21:00.458Z,2.58
2023-05-12T22:23:29.941Z,1.98
2023-05-12T22:25:58.009Z,2.38
2023-05-12T22:28:26.147Z,2.05
2023-05-12T22:30:54.714Z,3.67
2023-05-12T22:33:22.800Z,2.10
2023-05-12T22:35:50.884Z,1.92
2023-05-12T22:38:19.023Z,1.77
2023-05-12T22:40:49.061Z,1.92
2023-05-12T22:43:18.213Z,2.75
2023-05-12T22:45:46.288Z,4.30
2023-05-12T22:48:14.806Z,2.28
2023-05-12T22:50:42.843Z,4.50
2023-05-12T22:53:10.880Z,1.73
2023-05-12T22:55:39.414Z,1.95
2023-05-12T22:58:10.333Z,1.70
2023-05-12T23:00:38.920Z,2.78
2023-05-12T23:03:07.458Z,6.25
2023-05-12T23:05:36.076Z,2.17
2023-05-12T23:08:04.153Z,2.80
2023-05-12T23:10:32.673Z,2.03
2023-05-12T23:13:00.754Z,3.67
2023-05-12T23:15:30.196Z,2.13
2023-05-12T23:17:58.763Z,2.38
2023-05-12T23:20:27.426Z,3.75
2023-05-12T23:22:55.469Z,3.38
2023-05-12T23:25:24.401Z,3.08
2023-05-12T23:27:52.510Z,2.90
2023-05-12T23:30:21.395Z,3.53
2023-05-12T23:32:51.209Z,3.72
2023-05-12T23:35:19.972Z,2.80
2023-05-12T23:37:48.152Z,2.40
2023-05-12T23:40:16.696Z,2.60
2023-05-12T23:42:44.738Z,4.20
2023-05-12T23:45:13.474Z,2.42
2023-05-12T23:47:41.597Z,3.42
2023-05-12T23:50:11.988Z,4.10
2023-05-12T23:52:39.996Z,6.10
2023-05-12T23:55:09.577Z,4.10
2023-05-12T23:57:38.078Z,3.30
